KHGR

Hagerstown Regional-Richard A Henson Field Airport

Hagerstown, Maryland, USA
METAR KHGR 201453Z VRB03KT 7SM CLR 13/09 A3033 RMK AO2 SLP282 T01280094 50006
Observed Flight Rules
Feb-20 @ 14:53 UTC (2 hours ago) Visual Flight Rules
Wind Visibility Clouds
Variable at 3 knots 7 miles
  • Clear skies
Temperatures Readings
Current 13°C / 55°F
Dewpoint 9°C / 48°F
Humidity 77%
Altimeter 30.33" Hg
Pressure 1028.2 hPa
Elevation 224
METAR KHGR 201453Z VRB03KT 7SM CLR 13/09 A3033 RMK AO2 SLP282 T01280094 50006
Observed Flight Rules
Feb-20 @ 14:53 UTC
(2 hours ago)
VFR
Wind Visibility
Variable at 3 knots 7 miles
Clouds
  • Clear skies
Temperature Dewpoint
13°C / 55°F 9°C / 48°F
Humidity Altimeter Pressure
77% 30.33" Hg 1028.2 hPa